createdAt,value
2017-12-03T11:13:25.127Z,13.36
2017-12-03T11:15:53.526Z,16.17
2017-12-03T11:18:21.393Z,19.37
2017-12-03T11:20:50.758Z,14.43
2017-12-03T11:23:19.148Z,18.63
2017-12-03T11:25:48.294Z,17.87
2017-12-03T11:28:16.970Z,12.93
2017-12-03T11:30:46.391Z,20.65
2017-12-03T11:33:15.839Z,15.40
2017-12-03T11:35:45.177Z,15.03
2017-12-03T11:38:13.564Z,18.33
2017-12-03T11:40:41.954Z,12.30
2017-12-03T11:43:10.349Z,15.03
2017-12-03T11:45:39.027Z,17.37
2017-12-03T11:48:07.697Z,20.10
2017-12-03T11:50:36.097Z,25.23
2017-12-03T11:53:04.621Z,16.00
2017-12-03T11:55:33.548Z,17.00
2017-12-03T11:58:02.810Z,14.93
2017-12-03T12:00:31.212Z,16.97
2017-12-03T12:02:59.655Z,14.13
2017-12-03T12:05:28.040Z,16.60
2017-12-03T12:07:56.436Z,11.97
2017-12-03T12:10:25.241Z,13.90
2017-12-03T12:12:54.534Z,12.97
2017-12-03T12:15:23.104Z,13.50
2017-12-03T12:17:51.482Z,11.90
2017-12-03T12:20:20.010Z,16.27
2017-12-03T12:22:48.658Z,11.25
2017-12-03T12:25:17.156Z,13.43
2017-12-03T12:27:46.146Z,16.80
2017-12-03T12:30:14.801Z,14.23
2017-12-03T12:32:43.182Z,10.40
2017-12-03T12:35:12.325Z,16.13
2017-12-03T12:37:40.532Z,12.77
2017-12-03T12:40:09.678Z,14.63
2017-12-03T12:42:38.289Z,9.65
2017-12-03T12:45:07.766Z,13.63
2017-12-03T12:47:35.641Z,16.47
2017-12-03T12:50:05.021Z,14.40
2017-12-03T12:52:33.233Z,17.27
2017-12-03T12:55:02.292Z,15.43
2017-12-03T12:57:30.477Z,12.30
2017-12-03T12:59:58.786Z,11.13
2017-12-03T13:02:27.174Z,12.77
2017-12-03T13:04:55.836Z,12.88
2017-12-03T13:07:24.974Z,16.57
2017-12-03T13:09:54.414Z,18.25
2017-12-03T13:12:23.782Z,13.60
2017-12-03T13:14:52.171Z,14.03
2017-12-03T13:17:20.820Z,11.83
2017-12-03T13:19:49.446Z,18.83
2017-12-03T13:22:21.529Z,18.67
2017-12-03T13:24:49.933Z,14.00
2017-12-03T13:27:19.081Z,13.80
2017-12-03T13:29:47.739Z,14.27
2017-12-03T13:32:16.132Z,15.63
2017-12-03T13:34:45.532Z,15.13
2017-12-03T13:37:14.189Z,13.82
2017-12-03T13:39:42.854Z,13.40
2017-12-03T13:42:12.000Z,14.70
2017-12-03T13:44:40.642Z,15.20
2017-12-03T13:47:09.306Z,12.33
2017-12-03T13:49:37.983Z,14.15
2017-12-03T13:52:06.661Z,15.80
2017-12-03T13:54:35.046Z,13.23
2017-12-03T13:57:03.758Z,14.30
2017-12-03T13:59:34.043Z,14.57
2017-12-03T14:02:02.917Z,13.77
2017-12-03T14:04:31.466Z,13.93
2017-12-03T14:06:59.970Z,21.30
2017-12-03T14:09:28.423Z,13.88
2017-12-03T14:11:58.318Z,14.25
2017-12-03T14:14:26.862Z,18.60
2017-12-03T14:16:55.275Z,18.00
2017-12-03T14:19:24.245Z,14.37
2017-12-03T14:21:52.443Z,17.60
2017-12-03T14:24:21.429Z,19.40
2017-12-03T14:26:49.900Z,12.88
2017-12-03T14:29:20.862Z,14.77
2017-12-03T14:31:49.617Z,13.50
2017-12-03T14:34:18.289Z,15.52
2017-12-03T14:36:46.683Z,12.60
2017-12-03T14:39:15.977Z,18.10
2017-12-03T14:41:44.555Z,14.43
2017-12-03T14:44:14.029Z,17.65
2017-12-03T14:46:42.237Z,19.80
2017-12-03T14:49:10.723Z,18.33
2017-12-03T14:51:39.107Z,13.67
2017-12-03T14:54:08.053Z,17.12
2017-12-03T14:56:37.133Z,16.85
2017-12-03T14:59:06.569Z,15.20
2017-12-03T15:01:35.239Z,17.62
2017-12-03T15:04:03.460Z,15.90
2017-12-03T15:06:32.704Z,16.33
2017-12-03T15:09:01.052Z,17.63
2017-12-03T15:11:31.652Z,16.73
2017-12-03T15:13:59.969Z,18.13
2017-12-03T15:16:27.751Z,15.17
2017-12-03T15:18:55.754Z,20.40
2017-12-03T15:21:23.570Z,18.37
2017-12-03T15:23:51.302Z,13.97
2017-12-03T15:26:19.818Z,21.87
2017-12-03T15:28:47.826Z,17.33
2017-12-03T15:31:15.558Z,20.50
2017-12-03T15:33:43.611Z,13.93
2017-12-03T15:36:11.649Z,17.67
2017-12-03T15:38:40.145Z,12.30
2017-12-03T15:41:07.860Z,15.10
2017-12-03T15:43:36.687Z,13.73
2017-12-03T15:46:04.350Z,15.40
2017-12-03T15:48:32.250Z,13.03
2017-12-03T15:50:59.982Z,16.83
2017-12-03T15:53:28.584Z,18.43
2017-12-03T15:55:57.349Z,13.13
2017-12-03T15:58:26.193Z,18.80
2017-12-03T16:00:53.934Z,16.40
2017-12-03T16:03:21.660Z,18.30
2017-12-03T16:05:50.141Z,13.60
2017-12-03T16:08:19.397Z,15.43
2017-12-03T16:10:47.442Z,18.30
2017-12-03T16:13:16.033Z,18.13
2017-12-03T16:15:44.433Z,17.70
2017-12-03T16:18:12.491Z,16.20
2017-12-03T16:20:40.817Z,14.38
2017-12-03T16:23:09.505Z,14.80
2017-12-03T16:25:38.662Z,14.07
2017-12-03T16:28:07.287Z,19.15
2017-12-03T16:30:35.591Z,18.83
2017-12-03T16:33:04.237Z,16.10
2017-12-03T16:35:32.570Z,17.93
2017-12-03T16:38:00.906Z,20.90
2017-12-03T16:40:29.290Z,17.90
2017-12-03T16:42:57.918Z,19.07
2017-12-03T16:45:26.102Z,20.60
2017-12-03T16:47:54.100Z,22.65
2017-12-03T16:50:22.681Z,20.33
2017-12-03T16:52:51.082Z,21.50
2017-12-03T16:55:19.665Z,15.33
2017-12-03T16:57:47.969Z,20.63
2017-12-03T17:00:15.707Z,21.47
2017-12-03T17:02:44.091Z,19.03
2017-12-03T17:05:11.807Z,18.87
2017-12-03T17:07:40.300Z,22.73
2017-12-03T17:10:08.721Z,21.60
2017-12-03T17:12:36.771Z,22.15
2017-12-03T17:15:05.256Z,20.00
2017-12-03T17:17:33.998Z,19.98
2017-12-03T17:20:02.402Z,24.27
2017-12-03T17:22:30.289Z,26.73
2017-12-03T17:24:59.206Z,22.45
2017-12-03T17:27:27.178Z,21.33
2017-12-03T17:29:55.058Z,23.77
2017-12-03T17:32:23.537Z,25.98
2017-12-03T17:34:51.279Z,34.60
2017-12-03T17:37:19.800Z,28.60
2017-12-03T17:39:48.965Z,24.73
2017-12-03T17:42:17.620Z,25.77
2017-12-03T17:44:46.305Z,24.33
2017-12-03T17:47:14.711Z,23.90
2017-12-03T17:49:43.092Z,22.93
2017-12-03T17:52:11.499Z,22.40
2017-12-03T17:54:40.163Z,30.15
2017-12-03T17:57:08.814Z,26.77
2017-12-03T17:59:37.478Z,25.55
2017-12-03T18:02:06.984Z,24.80
2017-12-03T18:04:36.207Z,22.47
2017-12-03T18:07:05.608Z,29.13
2017-12-03T18:09:34.006Z,25.97
2017-12-03T18:12:02.676Z,24.27
2017-12-03T18:14:31.062Z,23.37
2017-12-03T18:16:59.752Z,32.77
2017-12-03T18:19:28.421Z,22.50
2017-12-03T18:21:57.518Z,24.83
2017-12-03T18:24:25.894Z,25.13
2017-12-03T18:26:54.286Z,24.80
2017-12-03T18:29:22.355Z,23.03
2017-12-03T18:31:50.254Z,27.73
2017-12-03T18:34:19.601Z,25.20
2017-12-03T18:36:47.949Z,29.77
2017-12-03T18:39:17.755Z,27.15
2017-12-03T18:41:45.897Z,27.15
2017-12-03T18:44:14.377Z,21.13
2017-12-03T18:46:44.519Z,25.07
2017-12-03T18:49:12.969Z,22.53
2017-12-03T18:51:41.907Z,32.50
2017-12-03T18:54:11.974Z,30.12
2017-12-03T18:56:40.307Z,22.37
2017-12-03T18:59:08.339Z,29.67
2017-12-03T19:01:36.485Z,27.87
2017-12-03T19:04:04.294Z,27.62
2017-12-03T19:06:31.838Z,34.63
2017-12-03T19:09:00.502Z,28.93
2017-12-03T19:11:28.882Z,24.40
2017-12-03T19:13:56.426Z,29.90
2017-12-03T19:16:24.444Z,25.00
2017-12-03T19:18:52.639Z,26.03
2017-12-03T19:21:21.229Z,28.47
2017-12-03T19:23:49.273Z,27.93
2017-12-03T19:26:16.988Z,32.60
2017-12-03T19:28:46.154Z,28.60
2017-12-03T19:31:15.399Z,26.47
2017-12-03T19:33:44.077Z,25.55
2017-12-03T19:36:12.090Z,28.55
2017-12-03T19:38:40.270Z,28.10
2017-12-03T19:41:09.699Z,27.48
2017-12-03T19:43:38.168Z,29.70
2017-12-03T19:46:06.564Z,27.77
2017-12-03T19:48:34.282Z,31.23
2017-12-03T19:51:02.121Z,32.00
2017-12-03T19:53:30.942Z,26.43
2017-12-03T19:56:00.036Z,30.20
2017-12-03T19:58:29.420Z,36.73
2017-12-03T20:00:57.494Z,29.93
2017-12-03T20:03:26.693Z,30.42
2017-12-03T20:05:54.753Z,28.63
2017-12-03T20:08:24.199Z,33.60
2017-12-03T20:10:52.249Z,33.53
2017-12-03T20:13:20.655Z,32.87
2017-12-03T20:15:49.179Z,32.47
2017-12-03T20:18:16.899Z,33.03
2017-12-03T20:20:45.231Z,32.75
2017-12-03T20:23:14.623Z,32.23
2017-12-03T20:25:43.446Z,31.03
2017-12-03T20:28:11.990Z,33.70
2017-12-03T20:30:41.547Z,29.70
2017-12-03T20:33:09.875Z,28.80
2017-12-03T20:35:38.416Z,35.65
2017-12-03T20:38:07.638Z,40.43
2017-12-03T20:40:35.502Z,31.40
2017-12-03T20:43:03.987Z,29.60
2017-12-03T20:45:32.130Z,34.90
2017-12-03T20:48:01.554Z,38.70
2017-12-03T20:50:30.526Z,30.97
2017-12-03T20:52:58.640Z,30.87
2017-12-03T20:55:26.778Z,33.67
2017-12-03T20:57:55.772Z,35.90
2017-12-03T21:00:24.499Z,29.40
2017-12-03T21:02:53.154Z,39.03
2017-12-03T21:05:22.625Z,34.43
2017-12-03T21:07:50.700Z,34.60
2017-12-03T21:10:19.031Z,34.23
2017-12-03T21:12:46.763Z,27.53
2017-12-03T21:15:15.039Z,31.05
2017-12-03T21:17:43.519Z,30.23
2017-12-03T21:20:12.676Z,30.40
2017-12-03T21:22:40.388Z,38.60
2017-12-03T21:25:09.530Z,30.63
2017-12-03T21:27:37.866Z,32.33
2017-12-03T21:30:05.616Z,26.13
2017-12-03T21:32:34.808Z,28.77
2017-12-03T21:35:03.117Z,32.20
2017-12-03T21:37:30.998Z,24.43
2017-12-03T21:39:59.042Z,29.97
2017-12-03T21:42:27.386Z,29.73
2017-12-03T21:44:58.772Z,29.50
2017-12-03T21:47:27.418Z,26.23
2017-12-03T21:49:55.902Z,29.37
2017-12-03T21:52:24.405Z,24.77
2017-12-03T21:54:53.762Z,28.50
2017-12-03T21:57:21.971Z,26.63
2017-12-03T21:59:51.133Z,25.70
2017-12-03T22:02:19.521Z,23.17
2017-12-03T22:04:49.193Z,29.57
2017-12-03T22:07:17.582Z,31.60
2017-12-03T22:09:45.969Z,26.33
2017-12-03T22:12:14.365Z,26.13
2017-12-03T22:14:42.749Z,30.60
2017-12-03T22:17:11.125Z,30.03
2017-12-03T22:19:39.553Z,32.47
2017-12-03T22:22:07.945Z,25.03
2017-12-03T22:24:36.335Z,24.93
2017-12-03T22:27:04.771Z,26.90
2017-12-03T22:29:33.158Z,25.63
2017-12-03T22:32:01.543Z,31.57
2017-12-03T22:34:29.942Z,22.23
2017-12-03T22:36:58.323Z,24.63
2017-12-03T22:39:26.706Z,19.87
2017-12-03T22:41:55.910Z,20.77
2017-12-03T22:44:24.304Z,27.03
2017-12-03T22:46:52.689Z,24.03
2017-12-03T22:49:21.850Z,25.87
2017-12-03T22:51:50.834Z,27.33
2017-12-03T22:54:19.222Z,23.13
2017-12-03T22:56:47.648Z,22.40
2017-12-03T22:59:16.806Z,24.37
2017-12-03T23:01:45.188Z,25.13
2017-12-03T23:04:14.429Z,23.80
2017-12-03T23:06:42.813Z,28.10
2017-12-03T23:09:12.129Z,24.93
2017-12-03T23:11:40.525Z,24.30
2017-12-03T23:14:08.897Z,23.33
2017-12-03T23:16:37.288Z,19.07
2017-12-03T23:19:05.686Z,23.20
2017-12-03T23:21:34.071Z,24.80
2017-12-03T23:24:02.555Z,26.47
2017-12-03T23:26:30.868Z,26.53
2017-12-03T23:28:59.072Z,24.47
2017-12-03T23:31:27.134Z,30.57
2017-12-03T23:33:55.351Z,27.20
2017-12-03T23:36:23.974Z,24.20
2017-12-03T23:38:52.417Z,27.17
2017-12-03T23:41:21.844Z,22.13
2017-12-03T23:43:49.898Z,24.97
2017-12-03T23:46:18.198Z,28.23
2017-12-03T23:48:46.585Z,19.73
2017-12-03T23:51:14.325Z,24.67
2017-12-03T23:53:42.725Z,24.53
2017-12-03T23:56:10.789Z,23.20
2017-12-03T23:58:38.503Z,27.13
